createdAt,value
2022-10-09T00:01:44.130Z,4.00
2022-10-09T00:04:10.434Z,4.00
2022-10-09T00:06:36.773Z,5.00
2022-10-09T00:09:03.098Z,3.67
2022-10-09T00:11:29.441Z,4.33
2022-10-09T00:13:55.791Z,4.00
2022-10-09T00:16:22.185Z,5.00
2022-10-09T00:18:48.613Z,5.00
2022-10-09T00:21:15.810Z,3.00
2022-10-09T00:23:42.127Z,4.67
2022-10-09T00:26:08.488Z,4.67
2022-10-09T00:28:38.440Z,5.00
2022-10-09T00:31:05.327Z,5.00
2022-10-09T00:33:31.675Z,4.33
2022-10-09T00:35:58.885Z,4.25
2022-10-09T00:38:25.200Z,4.00
2022-10-09T00:40:51.554Z,3.33
2022-10-09T00:43:17.895Z,4.67
2022-10-09T00:45:44.311Z,3.67
2022-10-09T00:48:10.636Z,3.00
2022-10-09T00:50:36.977Z,2.67
2022-10-09T00:53:03.312Z,4.00
2022-10-09T00:55:29.625Z,3.67
2022-10-09T00:57:55.937Z,3.00
2022-10-09T01:00:22.268Z,4.00
2022-10-09T01:02:48.876Z,3.00
2022-10-09T01:05:16.238Z,3.50
2022-10-09T01:07:42.575Z,3.00
2022-10-09T01:10:08.921Z,4.33
2022-10-09T01:12:35.286Z,3.00
2022-10-09T01:15:01.603Z,3.00
2022-10-09T01:17:27.910Z,2.33
2022-10-09T01:19:54.276Z,2.00
2022-10-09T01:22:20.565Z,3.00
2022-10-09T01:24:46.875Z,3.00
2022-10-09T01:27:13.232Z,3.00
2022-10-09T01:29:39.581Z,4.00
2022-10-09T01:32:05.915Z,3.00
2022-10-09T01:34:32.260Z,3.00
2022-10-09T01:36:58.552Z,3.00
2022-10-09T01:39:24.886Z,3.00
2022-10-09T01:41:51.209Z,4.00
2022-10-09T01:44:17.552Z,3.00
2022-10-09T01:46:43.877Z,1.33
2022-10-09T01:49:10.178Z,1.00
2022-10-09T01:51:36.517Z,3.33
2022-10-09T01:54:02.842Z,3.00
2022-10-09T01:56:29.207Z,3.00
2022-10-09T01:58:55.534Z,4.00
2022-10-09T02:01:21.909Z,4.00
2022-10-09T02:03:48.290Z,3.00
2022-10-09T02:06:14.628Z,3.33
2022-10-09T02:08:40.962Z,3.00
2022-10-09T02:11:07.300Z,4.00
2022-10-09T02:13:33.621Z,4.00
2022-10-09T02:16:00.009Z,3.00
2022-10-09T02:18:26.391Z,4.00
2022-10-09T02:20:52.720Z,4.00
2022-10-09T02:23:19.066Z,2.67
2022-10-09T02:25:45.400Z,3.00
2022-10-09T02:28:11.857Z,3.00
2022-10-09T02:30:38.268Z,3.00
2022-10-09T02:33:04.583Z,2.33
2022-10-09T02:35:30.899Z,3.00
2022-10-09T02:37:57.241Z,3.00
2022-10-09T02:40:26.351Z,2.83
2022-10-09T02:42:52.678Z,2.00
2022-10-09T02:45:18.972Z,3.00
2022-10-09T02:47:45.300Z,2.67
2022-10-09T02:50:11.654Z,3.67
2022-10-09T02:52:38.020Z,2.33
2022-10-09T02:55:04.358Z,2.00
2022-10-09T02:57:30.697Z,3.00
2022-10-09T02:59:57.021Z,2.33
2022-10-09T03:02:23.472Z,3.67
2022-10-09T03:04:49.915Z,2.00
2022-10-09T03:07:16.227Z,3.33
2022-10-09T03:09:42.536Z,2.00
2022-10-09T03:12:09.040Z,3.67
2022-10-09T03:14:35.374Z,3.33
2022-10-09T03:17:01.674Z,3.00
2022-10-09T03:19:27.995Z,3.00
2022-10-09T03:21:54.304Z,2.00
2022-10-09T03:24:20.652Z,3.00
2022-10-09T03:26:46.973Z,3.00
2022-10-09T03:29:13.258Z,2.00
2022-10-09T03:31:51.949Z,2.00
2022-10-09T03:34:19.339Z,3.33
2022-10-09T03:36:45.681Z,3.00
2022-10-09T03:39:12.015Z,3.00
2022-10-09T03:41:38.395Z,3.00
2022-10-09T03:44:04.732Z,2.67
2022-10-09T03:46:31.085Z,2.67
2022-10-09T03:48:57.526Z,3.00
2022-10-09T03:51:23.829Z,3.00
2022-10-09T03:53:50.138Z,2.33
2022-10-09T03:56:16.463Z,2.00
2022-10-09T03:58:45.588Z,2.33
2022-10-09T04:01:12.042Z,2.00
2022-10-09T04:03:38.445Z,2.33
2022-10-09T04:06:04.848Z,2.67
2022-10-09T04:08:31.162Z,2.00
2022-10-09T04:10:57.513Z,3.00
2022-10-09T04:13:23.824Z,2.00
2022-10-09T04:15:50.134Z,3.00
2022-10-09T04:18:16.458Z,3.33
2022-10-09T04:20:42.795Z,4.00
2022-10-09T04:23:09.203Z,3.67
2022-10-09T04:25:35.523Z,3.00
2022-10-09T04:28:01.856Z,4.00
2022-10-09T04:30:28.171Z,3.33
2022-10-09T04:32:54.492Z,4.00
2022-10-09T04:35:20.834Z,3.00
2022-10-09T04:37:47.179Z,4.00
2022-10-09T04:40:13.557Z,4.00
2022-10-09T04:42:39.898Z,3.00
2022-10-09T04:45:06.249Z,4.67
2022-10-09T04:47:32.590Z,5.00
2022-10-09T04:49:58.906Z,4.00
2022-10-09T04:52:25.260Z,5.00
2022-10-09T04:54:51.563Z,6.00
2022-10-09T04:57:17.930Z,5.00
2022-10-09T04:59:44.266Z,5.00
2022-10-09T05:02:10.656Z,6.00
2022-10-09T05:04:37.007Z,5.00
2022-10-09T05:07:03.344Z,6.00
2022-10-09T05:09:29.691Z,5.00
2022-10-09T05:11:56.011Z,5.00
2022-10-09T05:14:22.353Z,2.00
2022-10-09T05:17:12.061Z,5.00
2022-10-09T05:19:35.058Z,5.00
2022-10-09T05:22:01.462Z,6.00
2022-10-09T05:24:27.800Z,7.67
2022-10-09T05:26:54.148Z,6.00
2022-10-09T05:29:21.341Z,7.00
2022-10-09T05:31:49.606Z,6.33
2022-10-09T05:34:16.201Z,5.67
2022-10-09T05:36:42.583Z,4.33
2022-10-09T05:39:09.775Z,7.00
2022-10-09T05:41:36.153Z,7.67
2022-10-09T05:44:02.478Z,6.00
2022-10-09T05:46:28.816Z,6.33
2022-10-09T05:48:55.198Z,7.33
2022-10-09T05:51:22.380Z,8.50
2022-10-09T05:53:48.702Z,8.00
2022-10-09T05:56:16.006Z,6.75
2022-10-09T05:58:42.348Z,8.00
2022-10-09T06:01:09.634Z,7.50
2022-10-09T06:03:36.022Z,9.00
2022-10-09T06:06:02.461Z,10.50
2022-10-09T06:08:29.013Z,10.00
2022-10-09T06:10:55.708Z,11.00
2022-10-09T06:13:22.388Z,9.00
2022-10-09T06:15:48.761Z,7.00
2022-10-09T06:18:15.965Z,7.25
2022-10-09T06:20:42.278Z,6.00
2022-10-09T06:23:09.481Z,8.25
2022-10-09T06:25:35.823Z,6.67
2022-10-09T06:28:02.214Z,6.00
2022-10-09T06:30:28.649Z,6.00
2022-10-09T06:32:55.070Z,6.33
2022-10-09T06:35:21.418Z,4.33
2022-10-09T06:37:47.814Z,7.00
2022-10-09T06:40:15.017Z,7.25
2022-10-09T06:42:41.352Z,4.67
2022-10-09T06:45:07.700Z,6.67
2022-10-09T06:47:34.060Z,7.00
2022-10-09T06:50:01.287Z,8.00
2022-10-09T06:52:27.623Z,7.00
2022-10-09T06:54:54.880Z,8.00
2022-10-09T06:57:21.323Z,13.00
2022-10-09T06:59:47.753Z,19.00
2022-10-09T07:02:14.316Z,11.50
2022-10-09T07:04:40.792Z,9.00
2022-10-09T07:07:07.108Z,7.33
2022-10-09T07:09:34.328Z,9.25
2022-10-09T07:12:03.497Z,11.67
2022-10-09T07:14:29.905Z,10.00
2022-10-09T07:16:56.229Z,7.33
2022-10-09T07:19:22.577Z,5.33
2022-10-09T07:21:48.919Z,5.00
2022-10-09T07:24:15.247Z,6.00
2022-10-09T07:26:41.594Z,5.00
2022-10-09T07:29:07.948Z,6.00
2022-10-09T07:31:34.269Z,5.00
2022-10-09T07:34:00.613Z,5.00
2022-10-09T07:36:26.952Z,3.67
2022-10-09T07:38:53.272Z,4.00
2022-10-09T07:41:19.661Z,5.00
2022-10-09T07:43:45.988Z,5.00
2022-10-09T07:46:13.248Z,4.00
2022-10-09T07:48:39.596Z,4.00
2022-10-09T07:51:05.941Z,5.00
2022-10-09T07:53:35.814Z,5.33
2022-10-09T07:56:02.426Z,4.00
2022-10-09T07:58:28.751Z,3.33
2022-10-09T08:00:55.053Z,3.67
2022-10-09T08:03:21.578Z,4.00
2022-10-09T08:05:48.017Z,4.00
2022-10-09T08:08:14.366Z,4.00
2022-10-09T08:10:41.554Z,9.25
2022-10-09T08:13:08.002Z,7.00
2022-10-09T08:15:34.412Z,6.67
2022-10-09T08:18:00.895Z,5.00
2022-10-09T08:20:27.225Z,5.00
2022-10-09T08:22:53.665Z,5.00
2022-10-09T08:25:20.881Z,5.00
2022-10-09T08:27:47.243Z,5.00
2022-10-09T08:30:13.660Z,4.00
2022-10-09T08:32:39.903Z,5.00
2022-10-09T08:35:06.278Z,5.00
2022-10-09T08:37:32.679Z,5.33
2022-10-09T08:39:59.096Z,3.67
2022-10-09T08:42:25.390Z,6.00
2022-10-09T08:44:51.722Z,4.00
2022-10-09T08:47:18.989Z,3.25
2022-10-09T08:49:45.325Z,5.67
2022-10-09T08:52:11.728Z,5.00
2022-10-09T08:54:38.052Z,5.67
2022-10-09T08:57:04.392Z,4.00
2022-10-09T08:59:30.745Z,4.00
2022-10-09T09:01:57.143Z,4.00
2022-10-09T09:04:23.516Z,4.00
2022-10-09T09:06:49.846Z,5.00
2022-10-09T09:09:16.203Z,4.67
2022-10-09T09:11:42.550Z,4.67
2022-10-09T09:14:08.953Z,5.67
2022-10-09T09:16:35.276Z,4.00
2022-10-09T09:19:01.601Z,3.67
2022-10-09T09:21:27.932Z,6.00
2022-10-09T09:23:54.236Z,5.33
2022-10-09T09:26:20.656Z,6.67
2022-10-09T09:28:47.890Z,7.25
2022-10-09T09:31:14.390Z,6.67
2022-10-09T09:33:44.464Z,7.00
2022-10-09T09:36:12.163Z,6.00
2022-10-09T09:39:02.464Z,8.25
2022-10-09T09:41:25.711Z,6.67
2022-10-09T09:43:52.032Z,6.33
2022-10-09T09:46:18.382Z,6.33
2022-10-09T09:48:44.771Z,9.00
2022-10-09T09:51:27.627Z,7.67
2022-10-09T09:53:55.106Z,7.00
2022-10-09T09:56:21.453Z,7.00
2022-10-09T09:58:47.797Z,6.67
2022-10-09T10:01:15.012Z,5.50
2022-10-09T10:03:41.431Z,7.00
2022-10-09T10:06:07.748Z,4.67
2022-10-09T10:08:34.072Z,5.00
2022-10-09T10:11:00.397Z,6.00
2022-10-09T10:13:26.728Z,6.00
2022-10-09T10:15:53.132Z,6.67
2022-10-09T10:18:19.521Z,5.00
2022-10-09T10:20:45.978Z,9.67
2022-10-09T10:23:12.374Z,8.50
2022-10-09T10:25:42.294Z,10.86
2022-10-09T10:28:09.586Z,7.50
2022-10-09T10:30:35.969Z,8.00
2022-10-09T10:33:02.314Z,7.67
2022-10-09T10:35:28.628Z,6.00
2022-10-09T10:37:54.979Z,7.00
2022-10-09T10:40:21.288Z,6.67
2022-10-09T10:42:47.610Z,6.00
2022-10-09T10:45:13.935Z,7.00
2022-10-09T10:47:40.269Z,6.67
2022-10-09T10:50:06.603Z,7.67
2022-10-09T10:52:32.940Z,6.00
2022-10-09T10:54:59.266Z,5.33
2022-10-09T10:57:25.634Z,6.67
2022-10-09T10:59:51.924Z,5.67
2022-10-09T11:02:18.276Z,7.00
2022-10-09T11:04:44.616Z,5.00
2022-10-09T11:07:11.105Z,6.00
2022-10-09T11:09:37.519Z,5.33
2022-10-09T11:12:03.941Z,5.00
2022-10-09T11:14:30.297Z,8.67
2022-10-09T11:16:56.648Z,7.00
2022-10-09T11:19:23.005Z,7.67
2022-10-09T11:21:49.330Z,7.33
2022-10-09T11:24:16.537Z,6.00
2022-10-09T11:26:42.908Z,6.00
2022-10-09T11:29:10.121Z,6.00
2022-10-09T11:31:36.488Z,7.00
2022-10-09T11:34:02.810Z,6.00
2022-10-09T11:36:29.148Z,5.00
2022-10-09T11:38:55.471Z,6.00
2022-10-09T11:41:21.795Z,7.00
2022-10-09T11:43:48.206Z,7.00
2022-10-09T11:46:15.521Z,7.00
2022-10-09T11:48:42.004Z,6.67
2022-10-09T11:51:09.254Z,5.25
2022-10-09T11:53:35.590Z,5.00
2022-10-09T11:56:01.912Z,6.67
2022-10-09T11:58:28.235Z,6.33
2022-10-09T12:00:54.870Z,6.00
2022-10-09T12:03:21.266Z,6.00
2022-10-09T12:05:47.586Z,5.00
2022-10-09T12:08:16.887Z,5.33
2022-10-09T12:10:45.754Z,6.00
2022-10-09T12:13:12.958Z,6.00
2022-10-09T12:15:39.287Z,6.00
2022-10-09T12:18:05.676Z,4.00
2022-10-09T12:20:32.021Z,4.00
2022-10-09T12:23:27.732Z,3.33
2022-10-09T12:25:44.686Z,4.67
2022-10-09T12:28:11.078Z,6.00
2022-10-09T12:30:45.045Z,4.17
2022-10-09T12:33:14.880Z,5.00
2022-10-09T12:35:41.280Z,6.33
2022-10-09T12:38:07.633Z,6.00
2022-10-09T12:40:33.987Z,5.00
2022-10-09T12:43:00.375Z,6.00
2022-10-09T12:45:26.853Z,6.00
2022-10-09T12:47:53.182Z,7.00
2022-10-09T12:50:19.528Z,6.00
2022-10-09T12:52:45.912Z,7.00
2022-10-09T12:55:12.360Z,6.00
2022-10-09T12:57:38.677Z,7.00
2022-10-09T13:00:05.048Z,5.67
2022-10-09T13:02:31.566Z,8.00
2022-10-09T13:04:58.065Z,8.00
2022-10-09T13:07:24.421Z,7.33
2022-10-09T13:09:50.778Z,7.50
2022-10-09T13:12:18.002Z,8.00
2022-10-09T13:14:44.428Z,6.33
2022-10-09T13:17:11.707Z,9.00
2022-10-09T13:19:38.057Z,6.33
2022-10-09T13:22:04.407Z,5.33
2022-10-09T13:24:30.906Z,10.50
2022-10-09T13:26:57.380Z,9.50
2022-10-09T13:29:23.810Z,9.50
2022-10-09T13:31:52.990Z,10.33
2022-10-09T13:34:20.221Z,7.25
2022-10-09T13:36:47.429Z,9.00
2022-10-09T13:39:15.721Z,10.00
2022-10-09T13:41:42.039Z,7.00
2022-10-09T13:44:09.247Z,9.00
2022-10-09T13:46:38.360Z,8.00
2022-10-09T13:49:04.729Z,9.00
2022-10-09T13:51:32.917Z,8.60
2022-10-09T13:54:00.127Z,8.25
2022-10-09T13:56:29.267Z,8.83
2022-10-09T13:58:58.399Z,8.67
2022-10-09T14:01:24.807Z,9.00
2022-10-09T14:03:51.215Z,10.00
2022-10-09T14:06:19.450Z,8.80
2022-10-09T14:08:45.864Z,10.00
2022-10-09T14:11:15.101Z,9.83
2022-10-09T14:13:43.378Z,10.80
2022-10-09T14:16:09.794Z,10.00
2022-10-09T14:18:37.063Z,9.50
2022-10-09T14:21:04.313Z,9.00
2022-10-09T14:23:34.235Z,9.86
2022-10-09T14:26:03.364Z,9.50
2022-10-09T14:28:29.936Z,11.00
2022-10-09T14:30:56.417Z,10.00
2022-10-09T14:33:22.821Z,8.00
2022-10-09T14:35:51.988Z,10.50
2022-10-09T14:38:20.253Z,10.20
2022-10-09T14:40:46.610Z,5.67
2022-10-09T14:43:13.072Z,10.00
2022-10-09T14:45:39.557Z,10.00
2022-10-09T14:48:06.748Z,8.50
2022-10-09T14:50:35.898Z,7.00
2022-10-09T14:53:02.220Z,7.50
2022-10-09T14:55:28.639Z,9.50
2022-10-09T14:57:55.029Z,10.00
2022-10-09T15:00:21.445Z,10.00
2022-10-09T15:02:47.824Z,8.33
2022-10-09T15:05:14.224Z,10.00
2022-10-09T15:07:40.570Z,9.00
2022-10-09T15:10:08.840Z,11.80
2022-10-09T15:12:37.989Z,9.17
2022-10-09T15:15:04.373Z,9.00
2022-10-09T15:17:33.538Z,10.83
2022-10-09T15:19:59.930Z,9.00
2022-10-09T15:22:26.414Z,10.00
2022-10-09T15:24:53.666Z,9.00
2022-10-09T15:27:20.128Z,9.00
2022-10-09T15:29:47.362Z,9.50
2022-10-09T15:32:13.723Z,8.00
2022-10-09T15:34:41.241Z,9.00
2022-10-09T15:37:07.755Z,9.33
2022-10-09T15:39:34.183Z,8.00
2022-10-09T15:42:00.626Z,9.50
2022-10-09T15:44:27.882Z,10.25
2022-10-09T15:46:54.337Z,10.00
2022-10-09T15:49:23.505Z,9.50
2022-10-09T15:51:51.767Z,11.60
2022-10-09T15:54:18.277Z,10.00
2022-10-09T15:56:47.423Z,10.00
2022-10-09T15:59:13.777Z,9.00
2022-10-09T16:01:40.237Z,9.00
2022-10-09T16:04:06.773Z,11.00
2022-10-09T16:06:33.176Z,9.50
2022-10-09T16:08:59.617Z,10.00
2022-10-09T16:11:26.814Z,10.50
2022-10-09T16:13:53.468Z,10.00
2022-10-09T16:16:19.925Z,10.50
2022-10-09T16:18:47.180Z,11.00
2022-10-09T16:21:14.405Z,7.00
2022-10-09T16:23:40.828Z,9.50
2022-10-09T16:26:07.246Z,10.00
2022-10-09T16:28:34.549Z,9.00
2022-10-09T16:31:03.750Z,8.17
2022-10-09T16:33:30.088Z,7.67
2022-10-09T16:35:56.409Z,6.67
2022-10-09T16:38:23.692Z,7.50
2022-10-09T16:41:01.950Z,8.00
2022-10-09T16:43:30.808Z,9.20
2022-10-09T16:45:57.170Z,6.00
2022-10-09T16:48:24.364Z,7.25
2022-10-09T16:50:50.699Z,7.00
2022-10-09T16:53:17.912Z,9.00
2022-10-09T16:55:44.343Z,6.00
2022-10-09T16:58:11.564Z,7.25
2022-10-09T17:00:37.922Z,8.67
2022-10-09T17:03:04.493Z,8.00
2022-10-09T17:05:30.927Z,11.00
2022-10-09T17:07:57.314Z,9.00
2022-10-09T17:10:24.522Z,8.00
2022-10-09T17:12:50.972Z,10.00
2022-10-09T17:15:18.185Z,6.50
2022-10-09T17:17:44.641Z,2.00
2022-10-09T17:20:11.508Z,7.33
2022-10-09T17:22:38.112Z,7.00
2022-10-09T17:25:05.546Z,8.75
2022-10-09T17:27:32.178Z,9.00
2022-10-09T17:29:58.538Z,8.00
2022-10-09T17:32:24.937Z,8.00
2022-10-09T17:34:51.599Z,5.67
2022-10-09T17:37:21.194Z,8.50
2022-10-09T17:39:51.897Z,6.00
2022-10-09T17:42:19.832Z,6.75
2022-10-09T17:44:47.212Z,7.75
2022-10-09T17:47:13.666Z,8.00
2022-10-09T17:49:43.138Z,9.83
2022-10-09T17:52:09.504Z,6.33
2022-10-09T17:54:35.861Z,6.67
2022-10-09T17:57:02.229Z,7.00
2022-10-09T17:59:28.764Z,8.00
2022-10-09T18:01:55.148Z,8.50
2022-10-09T18:04:21.481Z,7.00
2022-10-09T18:06:48.699Z,6.00
2022-10-09T18:09:17.827Z,6.67
2022-10-09T18:11:44.530Z,8.50
2022-10-09T18:14:11.052Z,7.67
2022-10-09T18:16:37.429Z,6.33
2022-10-09T18:19:04.760Z,8.00
2022-10-09T18:21:32.174Z,8.50
2022-10-09T18:23:58.523Z,8.33
2022-10-09T18:26:25.817Z,8.50
2022-10-09T18:28:52.177Z,7.00
2022-10-09T18:31:19.374Z,5.00
2022-10-09T18:33:45.729Z,6.67
2022-10-09T18:36:12.917Z,7.00
2022-10-09T18:38:39.319Z,5.00
2022-10-09T18:41:05.676Z,4.67
2022-10-09T18:43:32.003Z,6.00
2022-10-09T18:45:58.338Z,5.00
2022-10-09T18:48:24.683Z,4.00
2022-10-09T18:50:51.048Z,4.00
2022-10-09T18:53:18.251Z,4.00
2022-10-09T18:55:44.564Z,4.00
2022-10-09T18:58:10.901Z,4.00
2022-10-09T19:00:37.372Z,4.00
2022-10-09T19:03:03.828Z,3.33
2022-10-09T19:05:30.182Z,4.00
2022-10-09T19:07:56.549Z,4.00
2022-10-09T19:10:22.918Z,3.00
2022-10-09T19:12:49.255Z,3.00
2022-10-09T19:15:16.746Z,4.33
2022-10-09T19:17:43.097Z,4.00
2022-10-09T19:20:09.474Z,3.00
2022-10-09T19:22:35.819Z,5.33
2022-10-09T19:25:02.191Z,4.00
2022-10-09T19:27:28.667Z,4.00
2022-10-09T19:29:55.009Z,4.00
2022-10-09T19:32:23.838Z,4.00
2022-10-09T19:34:50.434Z,3.33
2022-10-09T19:37:17.659Z,4.00
2022-10-09T19:39:44.062Z,5.00
2022-10-09T19:42:10.478Z,5.00
2022-10-09T19:44:36.826Z,5.00
2022-10-09T19:47:03.180Z,4.67
2022-10-09T19:49:29.524Z,4.67
2022-10-09T19:51:55.861Z,6.00
2022-10-09T19:54:22.228Z,4.00
2022-10-09T19:56:48.619Z,5.00
2022-10-09T19:59:14.965Z,5.00
2022-10-09T20:01:41.317Z,4.00
2022-10-09T20:04:07.716Z,4.00
2022-10-09T20:06:34.145Z,4.67
2022-10-09T20:09:00.522Z,3.33
2022-10-09T20:11:26.895Z,5.00
2022-10-09T20:13:55.927Z,4.67
2022-10-09T20:16:22.846Z,3.67
2022-10-09T20:18:49.164Z,5.00
2022-10-09T20:21:15.554Z,4.00
2022-10-09T20:23:41.898Z,3.67
2022-10-09T20:26:08.241Z,4.00
2022-10-09T20:28:34.624Z,6.67
2022-10-09T20:31:01.028Z,5.67
2022-10-09T20:33:27.382Z,8.50
2022-10-09T20:35:53.727Z,6.00
2022-10-09T20:38:25.550Z,8.00
2022-10-09T20:40:53.363Z,8.75
2022-10-09T20:43:19.731Z,9.00
2022-10-09T20:45:46.052Z,8.00
2022-10-09T20:48:14.259Z,9.00
2022-10-09T20:50:42.523Z,10.80
2022-10-09T20:53:09.152Z,12.00
2022-10-09T20:55:35.554Z,12.00
2022-10-09T20:58:02.027Z,12.00
2022-10-09T21:00:28.505Z,11.00
2022-10-09T21:02:54.975Z,12.00
2022-10-09T21:05:22.216Z,12.33
2022-10-09T21:07:48.627Z,14.00
2022-10-09T21:10:15.059Z,14.00
2022-10-09T21:12:41.485Z,16.00
2022-10-09T21:15:08.721Z,14.33
2022-10-09T21:17:35.150Z,15.50
2022-10-09T21:20:01.569Z,15.00
2022-10-09T21:22:27.965Z,12.00
2022-10-09T21:24:54.369Z,14.00
2022-10-09T21:27:20.829Z,13.50
2022-10-09T21:29:48.183Z,13.33
2022-10-09T21:32:14.581Z,10.50
2022-10-09T21:34:41.051Z,12.00
2022-10-09T21:37:21.095Z,13.33
2022-10-09T21:39:48.391Z,15.00
2022-10-09T21:42:14.816Z,14.00
2022-10-09T21:44:41.226Z,10.00
2022-10-09T21:47:08.599Z,15.00
2022-10-09T21:49:35.932Z,16.00
2022-10-09T21:52:02.417Z,13.00
2022-10-09T21:54:28.903Z,13.50
2022-10-09T21:56:55.352Z,29.00
2022-10-09T21:59:21.803Z,19.00
2022-10-09T22:01:49.151Z,24.00
2022-10-09T22:04:15.576Z,19.50
2022-10-09T22:06:42.037Z,19.00
2022-10-09T22:09:09.415Z,22.00
2022-10-09T22:11:36.772Z,18.00
2022-10-09T22:14:03.161Z,14.00
2022-10-09T22:16:29.722Z,12.00
2022-10-09T22:18:56.138Z,15.00
2022-10-09T22:21:22.605Z,12.00
2022-10-09T22:23:50.963Z,17.60
2022-10-09T22:26:18.302Z,12.33
2022-10-09T22:28:45.652Z,14.67
2022-10-09T22:31:13.014Z,15.00
2022-10-09T22:33:40.229Z,14.33
2022-10-09T22:36:07.456Z,13.00
2022-10-09T22:38:33.923Z,10.50
2022-10-09T22:41:01.159Z,12.67
2022-10-09T22:43:27.589Z,14.00
2022-10-09T22:45:54.033Z,13.00
2022-10-09T22:48:20.394Z,12.00
2022-10-09T22:50:48.746Z,15.80
2022-10-09T22:53:15.992Z,17.67
2022-10-09T22:55:42.455Z,14.00
2022-10-09T22:58:09.725Z,13.00
2022-10-09T23:00:36.954Z,13.67
2022-10-09T23:03:03.363Z,13.00
2022-10-09T23:05:29.765Z,15.00
2022-10-09T23:07:56.183Z,13.00
2022-10-09T23:10:23.448Z,14.67
2022-10-09T23:12:50.083Z,15.00
2022-10-09T23:15:16.647Z,12.50
2022-10-09T23:17:43.124Z,13.00
2022-10-09T23:20:09.532Z,14.00
2022-10-09T23:22:35.936Z,12.00
2022-10-09T23:25:03.191Z,12.67
2022-10-09T23:27:30.460Z,14.33
2022-10-09T23:29:56.936Z,12.50
2022-10-09T23:32:24.151Z,14.67
2022-10-09T23:34:50.589Z,16.00
2022-10-09T23:37:17.872Z,13.33
2022-10-09T23:39:44.325Z,13.00
2022-10-09T23:42:11.590Z,15.33
2022-10-09T23:44:38.044Z,14.50
2022-10-09T23:47:04.480Z,14.00
2022-10-09T23:49:30.911Z,11.50
2022-10-09T23:51:57.307Z,15.00
2022-10-09T23:54:24.657Z,14.67
2022-10-09T23:56:51.940Z,14.00
2022-10-09T23:59:19.200Z,17.00
